Skip Navigation Links Skip Navigation Links

Current Weather

Casa Grande Muni, Casa Grande, Ariz.

For information only: do not use for flight planning or navigation.
Latest weather
Observation time Thursday, January 27, 2022 8:56 PM MST
Local time Thursday, January 27, 2022 10:04 PM MST
Flight conditions Visual Meteorological Conditions
Winds
Wind direction North (360°)
Wind speed 7 mph
Visibility 10 mi.
Sky condition
Ceiling unlimited
Sky clear
Temperature 50°F
Dewpoint 21°F
Altimeter 30.22 in.Hg
Derived measurements
Relative humidity 32%
Wind chill 47°F
Density altitude 590 ft.
Sea-level pressure 30.24 in.Hg
Remarks
Fully automated report.
Automated weather observing station with precipitation discriminator.
METAR KCGZ 280356Z AUTO 36006KT 10SM CLR 10/M06 A3022 RMK AO2 SLP239 T01001061

Settings

Location code

InnerDrive.Weather 4.0.6770.0 Release CLR 4.0.30319.42000
Copyright ©2018 Inner Drive Technology. All rights reserved. Portions Copyright ©1986-2018 David Braverman.

Find weather

Site navigation


Skip Navigation Links

Place info

Page info

PayPal - The safer, easier way to pay online!

Return home.

Copyright ©2022 Inner Drive Technology. Purveyors of fine, hand-crafted computer software. Page printed 2022-01-28T05:04:43 UTC.